createdAt,value
2023-04-07T00:00:08.215Z,24.40
2023-04-07T00:02:38.741Z,24.40
2023-04-07T00:05:08.908Z,24.40
2023-04-07T00:07:48.870Z,24.40
2023-04-07T00:10:25.601Z,24.40
2023-04-07T00:12:55.590Z,24.50
2023-04-07T00:15:25.505Z,24.50
2023-04-07T00:17:55.772Z,24.50
2023-04-07T00:20:25.725Z,24.60
2023-04-07T00:22:55.635Z,24.60
2023-04-07T00:25:25.502Z,24.70
2023-04-07T00:27:55.396Z,24.70
2023-04-07T00:30:25.258Z,24.70
2023-04-07T00:32:56.044Z,24.80
2023-04-07T00:35:26.088Z,24.80
2023-04-07T00:37:56.217Z,24.90
2023-04-07T00:40:26.100Z,24.90
2023-04-07T00:42:55.884Z,25.00
2023-04-07T00:45:25.565Z,25.10
2023-04-07T00:47:55.516Z,25.10
2023-04-07T00:50:25.430Z,25.20
2023-04-07T00:52:58.823Z,25.20
2023-04-07T00:55:28.676Z,25.30
2023-04-07T00:57:58.794Z,25.40
2023-04-07T01:00:29.934Z,25.40
2023-04-07T01:03:07.313Z,25.50
2023-04-07T01:05:50.643Z,25.60
2023-04-07T01:08:45.500Z,25.70
2023-04-07T01:11:46.536Z,25.80
2023-04-07T01:14:18.174Z,25.90
2023-04-07T01:16:58.190Z,26.00
2023-04-07T01:19:39.901Z,26.10
2023-04-07T01:22:15.183Z,26.20
2023-04-07T01:25:24.154Z,26.30
2023-04-07T01:28:27.464Z,26.30
2023-04-07T01:31:00.929Z,26.50
2023-04-07T01:33:36.548Z,26.60
2023-04-07T01:36:09.296Z,26.70
2023-04-07T01:38:40.300Z,26.70
2023-04-07T01:41:11.029Z,26.80
2023-04-07T01:43:44.472Z,26.90
2023-04-07T01:46:15.016Z,27.00
2023-04-07T01:48:45.521Z,27.10
2023-04-07T01:51:19.344Z,27.10
2023-04-07T01:53:50.841Z,27.20
2023-04-07T01:56:20.779Z,27.30
2023-04-07T01:58:50.601Z,27.40
2023-04-07T02:01:20.672Z,27.40
2023-04-07T02:03:57.462Z,27.50
2023-04-07T02:06:33.915Z,27.60
2023-04-07T02:09:09.728Z,27.70
2023-04-07T02:11:42.305Z,27.90
2023-04-07T02:14:12.344Z,28.00
2023-04-07T02:16:44.216Z,28.10
2023-04-07T02:19:15.268Z,28.10
2023-04-07T02:21:46.349Z,28.20
2023-04-07T02:24:16.265Z,28.40
2023-04-07T02:26:46.182Z,28.50
2023-04-07T02:29:16.637Z,28.60
2023-04-07T02:31:46.490Z,28.80
2023-04-07T02:34:17.362Z,29.00
2023-04-07T02:36:47.435Z,29.10
2023-04-07T02:39:17.743Z,29.20
2023-04-07T02:41:47.630Z,29.30
2023-04-07T02:44:17.707Z,29.30
2023-04-07T02:46:47.780Z,29.40
2023-04-07T02:49:17.726Z,29.50
2023-04-07T02:51:48.810Z,29.60
2023-04-07T02:54:18.765Z,29.70
2023-04-07T02:56:48.610Z,29.80
2023-04-07T02:59:18.889Z,29.90
2023-04-07T03:01:48.833Z,30.00
2023-04-07T03:04:19.282Z,30.00
2023-04-07T03:06:49.336Z,30.10
2023-04-07T03:09:19.142Z,30.20
2023-04-07T03:11:49.043Z,30.30
2023-04-07T03:14:19.104Z,30.40
2023-04-07T03:16:49.098Z,30.40
2023-04-07T03:19:18.892Z,30.40
2023-04-07T03:21:48.666Z,30.50
2023-04-07T03:24:18.739Z,30.60
2023-04-07T03:26:48.915Z,30.70
2023-04-07T03:29:18.718Z,30.80
2023-04-07T03:31:48.757Z,30.90
2023-04-07T03:34:19.133Z,31.00
2023-04-07T03:36:48.929Z,31.10
2023-04-07T03:39:18.929Z,31.10
2023-04-07T05:58:44.175Z,35.10
2023-04-07T06:01:13.906Z,35.50
2023-04-07T06:03:43.965Z,35.60
2023-04-07T06:06:14.001Z,35.70
2023-04-07T06:08:43.863Z,35.80
2023-04-07T06:11:13.883Z,35.80
2023-04-07T06:13:43.837Z,35.80
2023-04-07T06:16:13.985Z,35.80
2023-04-07T06:18:43.946Z,35.80
2023-04-07T06:21:13.751Z,35.90
2023-04-07T06:23:43.892Z,35.90
2023-04-07T06:26:14.739Z,36.00
2023-04-07T06:28:44.723Z,35.90
2023-04-07T06:31:14.694Z,36.00
2023-04-07T06:33:44.575Z,36.00
2023-04-07T06:36:14.782Z,36.00
2023-04-07T06:38:44.627Z,36.00
2023-04-07T06:41:18.828Z,36.10
2023-04-07T06:43:55.565Z,36.10
2023-04-07T06:46:27.090Z,36.20
2023-04-07T06:48:57.265Z,36.30
2023-04-07T06:51:28.270Z,36.20
2023-04-07T06:53:58.197Z,36.20
2023-04-07T06:56:28.301Z,36.30
2023-04-07T06:58:58.263Z,36.20
2023-04-07T07:01:28.278Z,36.30
2023-04-07T07:03:58.490Z,36.30
2023-04-07T07:06:29.321Z,36.30
2023-04-07T07:08:59.215Z,36.30
2023-04-07T07:11:29.084Z,36.30
2023-04-07T07:13:59.005Z,36.30
2023-04-07T07:16:30.651Z,36.30
2023-04-07T07:19:00.489Z,36.30
2023-04-07T07:21:30.570Z,36.40
2023-04-07T07:24:00.636Z,36.40
2023-04-07T07:26:30.663Z,36.50
2023-04-07T07:29:00.803Z,36.50
2023-04-07T07:31:30.844Z,36.50
2023-04-07T07:34:00.851Z,36.50
2023-04-07T07:36:30.687Z,36.50
2023-04-07T07:39:00.986Z,36.50
2023-04-07T07:41:30.933Z,36.40
2023-04-07T07:44:00.851Z,36.40
2023-04-07T07:46:30.825Z,36.40
2023-04-07T07:49:00.702Z,36.40
2023-04-07T07:51:30.544Z,36.40
2023-04-07T07:54:00.393Z,36.40
2023-04-07T07:56:30.682Z,36.40
2023-04-07T07:59:00.971Z,36.30
2023-04-07T08:01:30.875Z,36.30
2023-04-07T08:04:01.032Z,36.30
2023-04-07T08:06:31.053Z,36.20
2023-04-07T08:09:01.054Z,36.20
2023-04-07T08:11:31.067Z,36.20
2023-04-07T08:14:01.008Z,36.30
2023-04-07T08:16:30.981Z,36.30
2023-04-07T08:19:00.939Z,36.40
2023-04-07T08:21:31.419Z,36.40
2023-04-07T08:24:01.701Z,36.40
2023-04-07T08:26:31.836Z,36.40
2023-04-07T08:29:01.840Z,36.50
2023-04-07T08:31:31.947Z,36.50
2023-04-07T08:34:01.931Z,36.50
2023-04-07T08:36:32.008Z,36.50
2023-04-07T08:39:04.065Z,36.50
2023-04-07T08:41:39.551Z,36.50
2023-04-07T08:44:15.075Z,36.50
2023-04-07T08:46:45.527Z,36.50
2023-04-07T08:49:16.217Z,36.50
2023-04-07T08:51:52.438Z,36.50
2023-04-07T08:54:24.268Z,36.50
2023-04-07T08:56:54.964Z,36.50
2023-04-07T08:59:28.572Z,36.40
2023-04-07T09:01:58.894Z,36.40
2023-04-07T09:04:29.609Z,36.40
2023-04-07T09:06:59.938Z,36.40
2023-04-07T09:09:29.832Z,36.30
2023-04-07T09:12:00.551Z,36.30
2023-04-07T09:14:30.427Z,36.30
2023-04-07T09:17:01.967Z,36.30
2023-04-07T09:19:32.630Z,36.20
2023-04-07T09:22:02.482Z,36.20
2023-04-07T09:24:36.394Z,36.10
2023-04-07T09:27:20.917Z,36.10
2023-04-07T09:29:50.843Z,36.00
2023-04-07T09:32:40.512Z,36.00
2023-04-07T09:35:11.102Z,35.90
2023-04-07T09:37:40.878Z,35.90
2023-04-07T09:40:11.815Z,35.80
2023-04-07T09:42:48.946Z,35.80
2023-04-07T09:45:34.550Z,35.80
2023-04-07T09:48:22.113Z,35.80
2023-04-07T09:50:53.625Z,35.70
2023-04-07T09:53:25.032Z,35.70
2023-04-07T09:55:55.421Z,35.70
2023-04-07T09:58:25.327Z,35.60
2023-04-07T10:00:55.192Z,35.60
2023-04-07T10:03:25.221Z,35.50
2023-04-07T10:05:56.271Z,35.50
2023-04-07T10:08:26.354Z,35.50
2023-04-07T10:10:57.451Z,35.50
2023-04-07T10:13:28.166Z,35.50
2023-04-07T10:15:58.842Z,35.40
2023-04-07T10:18:36.509Z,35.40
2023-04-07T10:21:08.532Z,35.40
2023-04-07T10:23:56.042Z,35.30
2023-04-07T10:26:28.203Z,35.30
2023-04-07T10:29:03.898Z,35.30
2023-04-07T10:31:34.606Z,35.20
2023-04-07T10:34:04.972Z,35.20
2023-04-07T10:36:35.679Z,35.20
2023-04-07T10:39:25.864Z,35.10
2023-04-07T10:41:55.689Z,35.10
2023-04-07T10:44:48.986Z,35.00
2023-04-07T10:47:19.059Z,35.00
2023-04-07T10:50:24.240Z,34.90
2023-04-07T10:53:14.490Z,34.90
2023-04-07T10:55:48.363Z,34.80
2023-04-07T10:58:30.716Z,34.80
2023-04-07T11:01:21.490Z,34.70
2023-04-07T11:04:00.369Z,34.70
2023-04-07T11:06:30.691Z,34.60
2023-04-07T11:09:00.771Z,34.60
2023-04-07T11:11:42.150Z,34.60
2023-04-07T11:14:12.240Z,34.50
2023-04-07T11:16:44.772Z,34.50
2023-04-07T11:19:14.756Z,34.50
2023-04-07T11:21:44.901Z,34.40
2023-04-07T11:24:41.092Z,34.40
2023-04-07T11:27:18.772Z,34.30
2023-04-07T11:29:48.834Z,34.30
2023-04-07T11:32:18.915Z,34.20
2023-04-07T11:34:48.998Z,34.20
2023-04-07T11:37:27.967Z,34.20
2023-04-07T11:39:59.190Z,34.10
2023-04-07T11:42:40.084Z,34.00
2023-04-07T11:45:21.169Z,34.00
2023-04-07T11:47:52.786Z,33.90
2023-04-07T11:50:42.992Z,33.90
2023-04-07T11:53:13.142Z,33.70
2023-04-07T11:55:43.149Z,33.70
2023-04-07T11:58:13.852Z,33.50
2023-04-07T12:01:07.687Z,33.50
2023-04-07T12:03:40.964Z,33.40
2023-04-07T12:06:10.807Z,33.30
2023-04-07T12:08:46.240Z,33.30
2023-04-07T12:11:16.609Z,33.30
2023-04-07T12:13:46.879Z,33.20
2023-04-07T12:16:16.841Z,33.20
2023-04-07T12:18:47.071Z,33.10
2023-04-07T12:21:17.653Z,33.10
2023-04-07T12:23:49.512Z,33.10
2023-04-07T12:26:22.464Z,33.00
2023-04-07T12:28:53.104Z,33.00
2023-04-07T12:31:23.491Z,33.00
2023-04-07T12:33:53.301Z,32.90
2023-04-07T12:36:23.148Z,32.90
2023-04-07T12:38:53.117Z,32.90
2023-04-07T12:41:23.428Z,32.80
2023-04-07T12:43:53.812Z,32.80
2023-04-07T12:46:24.176Z,32.80
2023-04-07T12:48:54.045Z,32.70
2023-04-07T12:51:24.076Z,32.70
2023-04-07T12:53:53.758Z,32.60
2023-04-07T12:56:26.779Z,32.60
2023-04-07T12:58:57.103Z,32.60
2023-04-07T13:01:27.747Z,32.50
2023-04-07T13:03:58.229Z,32.50
2023-04-07T13:06:28.168Z,32.50
2023-04-07T13:08:58.250Z,32.50
2023-04-07T13:11:28.378Z,32.40
2023-04-07T13:14:00.510Z,32.30
2023-04-07T13:16:31.019Z,32.30
2023-04-07T13:19:02.698Z,32.30
2023-04-07T13:24:05.341Z,32.20
2023-04-07T13:26:35.310Z,32.10
2023-04-07T13:29:05.328Z,32.10
2023-04-07T13:31:35.216Z,32.00
2023-04-07T13:34:05.148Z,32.00
2023-04-07T13:36:35.345Z,31.90
2023-04-07T13:39:05.472Z,31.80
2023-04-07T13:41:35.690Z,31.70
2023-04-07T13:44:05.646Z,31.60
2023-04-07T13:46:35.728Z,31.60
2023-04-07T13:49:05.655Z,31.50
2023-04-07T13:51:35.853Z,31.50
2023-04-07T13:54:05.663Z,31.50
2023-04-07T13:56:37.371Z,31.50
2023-04-07T13:59:09.277Z,31.40
2023-04-07T14:01:40.938Z,31.40
2023-04-07T14:04:10.989Z,31.40
2023-04-07T14:06:41.077Z,31.40
2023-04-07T14:09:12.519Z,31.30
2023-04-07T14:11:42.593Z,31.30
2023-04-07T14:14:12.722Z,31.30
2023-04-07T14:16:42.678Z,31.20
2023-04-07T14:19:12.718Z,31.00
2023-04-07T14:21:42.916Z,31.00
2023-04-07T14:24:12.896Z,30.90
2023-04-07T14:26:42.955Z,30.80
2023-04-07T14:29:14.244Z,30.70
2023-04-07T14:31:44.560Z,30.70
2023-04-07T14:34:14.357Z,30.70
2023-04-07T14:36:44.263Z,30.70
2023-04-07T14:39:14.224Z,30.70
2023-04-07T14:41:44.292Z,30.80
2023-04-07T14:44:14.260Z,30.90
2023-04-07T14:46:47.358Z,31.10
2023-04-07T14:49:17.908Z,31.20
2023-04-07T14:51:48.301Z,31.30
2023-04-07T14:54:18.156Z,31.30
2023-04-07T14:56:48.044Z,31.40
2023-04-07T14:59:17.999Z,31.40
2023-04-07T15:01:47.790Z,31.50
2023-04-07T15:04:17.897Z,31.50
2023-04-07T15:06:47.969Z,31.50
2023-04-07T15:09:17.824Z,31.50
2023-04-07T15:11:48.161Z,31.50
2023-04-07T15:14:17.925Z,31.50
2023-04-07T15:16:49.650Z,31.40
2023-04-07T15:19:19.740Z,31.40
2023-04-07T15:21:49.648Z,31.40
2023-04-07T15:24:21.311Z,31.40
2023-04-07T15:26:51.938Z,31.30
2023-04-07T15:29:21.899Z,31.30
2023-04-07T15:31:51.823Z,31.30
2023-04-07T15:34:21.795Z,31.20
2023-04-07T15:36:51.707Z,31.20
2023-04-07T15:39:21.706Z,31.20
2023-04-07T15:41:52.244Z,31.10
2023-04-07T15:44:22.167Z,31.10
2023-04-07T15:46:52.457Z,31.10
2023-04-07T15:49:26.033Z,31.10
2023-04-07T15:51:56.324Z,31.00
2023-04-07T15:54:26.196Z,31.00
2023-04-07T15:56:56.266Z,31.10
2023-04-07T15:59:26.382Z,31.00
2023-04-07T16:01:56.519Z,31.00
2023-04-07T16:04:26.626Z,31.00
2023-04-07T16:06:56.508Z,30.90
2023-04-07T16:09:26.398Z,30.90
2023-04-07T16:11:56.778Z,30.80
2023-04-07T16:14:30.745Z,30.80
2023-04-07T16:17:00.978Z,30.70
2023-04-07T16:19:31.227Z,30.60
2023-04-07T16:22:01.017Z,30.50
2023-04-07T16:24:30.881Z,30.50
2023-04-07T16:27:04.289Z,30.50
2023-04-07T16:29:34.393Z,30.50
2023-04-07T16:32:06.112Z,30.50
2023-04-07T16:34:36.214Z,30.40
2023-04-07T16:37:05.929Z,30.40
2023-04-07T16:39:35.821Z,30.40
2023-04-07T16:42:06.255Z,30.40
2023-04-07T16:44:37.255Z,30.30
2023-04-07T16:47:07.537Z,30.30
2023-04-07T16:49:37.768Z,30.30
2023-04-07T16:52:07.814Z,30.20
2023-04-07T16:54:38.056Z,30.20
2023-04-07T16:57:07.930Z,30.20
2023-04-07T16:59:37.761Z,30.20
2023-04-07T17:02:17.995Z,30.20
2023-04-07T17:04:48.261Z,30.10
2023-04-07T17:07:18.845Z,30.10
2023-04-07T17:09:48.604Z,30.10
2023-04-07T17:12:18.604Z,30.10
2023-04-07T17:14:48.478Z,30.10
2023-04-07T17:17:18.482Z,30.10
2023-04-07T17:19:48.384Z,30.10
2023-04-07T17:22:18.287Z,30.10
2023-04-07T17:24:49.054Z,30.00
2023-04-07T17:27:18.772Z,30.00
2023-04-07T17:29:48.824Z,30.00
2023-04-07T17:32:18.666Z,30.00
2023-04-07T17:34:48.708Z,29.90
2023-04-07T17:37:18.458Z,29.80
2023-04-07T17:39:48.768Z,29.70
2023-04-07T17:42:19.394Z,29.70
2023-04-07T17:44:49.142Z,29.60
2023-04-07T17:47:19.548Z,29.60
2023-04-07T17:49:50.246Z,29.50
2023-04-07T17:52:20.325Z,29.50
2023-04-07T17:54:50.086Z,29.50
2023-04-07T17:57:20.948Z,29.40
2023-04-07T17:59:51.513Z,29.40
2023-04-07T18:02:21.715Z,29.30
2023-04-07T18:04:52.301Z,29.30
2023-04-07T18:07:23.013Z,29.20
2023-04-07T18:09:53.111Z,29.20
2023-04-07T18:12:23.434Z,29.20
2023-04-07T18:14:53.484Z,29.20
2023-04-07T18:17:23.475Z,29.10
2023-04-07T18:19:53.488Z,29.10
2023-04-07T18:22:24.003Z,29.10
2023-04-07T18:24:53.992Z,29.10
2023-04-07T18:27:26.963Z,29.00
2023-04-07T18:30:00.219Z,29.00
2023-04-07T18:32:30.192Z,29.00
2023-04-07T18:35:00.110Z,28.90
2023-04-07T18:37:31.358Z,28.80
2023-04-07T18:40:01.130Z,28.80
2023-04-07T18:42:31.777Z,28.70
2023-04-07T18:45:01.578Z,28.70
2023-04-07T18:47:31.806Z,28.60
2023-04-07T18:50:01.737Z,28.60
2023-04-07T18:52:32.147Z,28.60
2023-04-07T18:55:02.092Z,28.60
2023-04-07T18:57:31.903Z,28.60
2023-04-07T19:00:01.906Z,28.60
2023-04-07T19:02:31.715Z,28.60
2023-04-07T19:05:02.004Z,28.60
2023-04-07T19:07:31.733Z,28.60
2023-04-07T19:10:01.841Z,28.60
2023-04-07T19:12:31.634Z,28.60
2023-04-07T19:15:01.665Z,28.50
2023-04-07T19:17:32.118Z,28.50
2023-04-07T19:20:02.041Z,28.40
2023-04-07T19:22:31.744Z,28.40
2023-04-07T19:25:01.697Z,28.40
2023-04-07T19:27:31.719Z,28.40
2023-04-07T19:30:01.639Z,28.40
2023-04-07T19:32:31.606Z,28.30
2023-04-07T19:35:01.434Z,28.30
2023-04-07T19:37:31.184Z,28.20
2023-04-07T19:40:03.368Z,28.10
2023-04-07T19:42:34.062Z,28.10
2023-04-07T19:45:09.666Z,28.00
2023-04-07T19:47:40.834Z,28.00
2023-04-07T19:50:13.137Z,28.00
2023-04-07T19:52:45.338Z,27.90
2023-04-07T19:55:17.044Z,27.90
2023-04-07T19:57:47.228Z,27.90
2023-04-07T20:00:17.689Z,27.90
2023-04-07T20:02:48.090Z,27.90
2023-04-07T20:05:18.218Z,27.90
2023-04-07T20:07:48.964Z,27.90
2023-04-07T20:10:18.768Z,28.00
2023-04-07T20:12:48.825Z,28.00
2023-04-07T20:15:18.968Z,28.00
2023-04-07T20:17:49.751Z,28.00
2023-04-07T20:20:20.104Z,27.90
2023-04-07T20:22:49.990Z,27.90
2023-04-07T20:25:19.849Z,27.90
2023-04-07T20:27:51.732Z,27.90
2023-04-07T20:30:21.786Z,27.90
2023-04-07T20:32:51.532Z,27.90
2023-04-07T20:35:21.649Z,27.80
2023-04-07T20:37:51.564Z,27.80
2023-04-07T20:40:21.330Z,27.80
2023-04-07T20:42:52.021Z,27.70
2023-04-07T20:45:23.317Z,27.70
2023-04-07T20:47:53.491Z,27.70
2023-04-07T20:50:23.566Z,27.70
2023-04-07T20:52:54.493Z,27.70
2023-04-07T20:55:24.334Z,27.70
2023-04-07T20:57:56.222Z,27.60
2023-04-07T21:00:26.106Z,27.50
2023-04-07T21:02:55.951Z,27.50
2023-04-07T21:05:25.776Z,27.50
2023-04-07T21:07:55.673Z,27.40
2023-04-07T21:10:25.590Z,27.40
2023-04-07T21:12:55.518Z,27.20
2023-04-07T21:15:25.518Z,27.10
2023-04-07T21:17:55.479Z,27.00
2023-04-07T21:20:25.390Z,26.80
2023-04-07T21:22:55.201Z,26.80
2023-04-07T21:25:24.907Z,26.70
2023-04-07T21:27:54.909Z,26.70
2023-04-07T21:30:25.038Z,26.70
2023-04-07T21:32:55.097Z,26.80
2023-04-07T21:35:25.148Z,26.80
2023-04-07T21:37:54.891Z,26.80
2023-04-07T21:40:24.972Z,26.90
2023-04-07T21:42:55.551Z,26.90
2023-04-07T21:45:25.413Z,26.90
2023-04-07T21:47:55.524Z,26.90
2023-04-07T21:50:25.845Z,26.90
2023-04-07T21:52:56.202Z,26.80
2023-04-07T21:55:26.150Z,26.80
2023-04-07T21:57:56.164Z,26.80
2023-04-07T22:00:26.198Z,26.80
2023-04-07T22:02:56.358Z,26.80
2023-04-07T22:05:26.414Z,26.80
2023-04-07T22:07:56.267Z,26.80
2023-04-07T22:10:26.205Z,26.80
2023-04-07T22:12:56.262Z,26.80
2023-04-07T22:15:26.226Z,26.70
2023-04-07T22:17:56.303Z,26.70
2023-04-07T22:20:27.721Z,26.70
2023-04-07T22:22:59.161Z,26.80
2023-04-07T22:25:29.083Z,26.70
2023-04-07T22:27:59.447Z,26.70
2023-04-07T22:30:29.296Z,26.70
2023-04-07T22:32:59.156Z,26.70
2023-04-07T22:35:29.161Z,26.70
2023-04-07T22:37:59.182Z,26.70
2023-04-07T22:40:29.198Z,26.70
2023-04-07T22:42:59.702Z,26.70
2023-04-07T22:45:29.575Z,26.70
2023-04-07T22:47:59.744Z,26.60
2023-04-07T22:50:29.661Z,26.60
2023-04-07T22:52:59.501Z,26.60
2023-04-07T22:55:29.396Z,26.60
2023-04-07T22:57:59.331Z,26.60
2023-04-07T23:00:29.932Z,26.60
2023-04-07T23:02:59.918Z,26.60
2023-04-07T23:05:30.014Z,26.50
2023-04-07T23:08:00.177Z,26.50
2023-04-07T23:10:30.000Z,26.40
2023-04-07T23:13:00.361Z,26.40
2023-04-07T23:15:30.227Z,26.30
2023-04-07T23:18:00.184Z,26.30
2023-04-07T23:20:30.176Z,26.30
2023-04-07T23:23:00.161Z,26.20
2023-04-07T23:25:29.984Z,26.30
2023-04-07T23:28:00.010Z,26.30
2023-04-07T23:30:29.874Z,26.30
2023-04-07T23:32:59.795Z,26.30
2023-04-07T23:35:29.573Z,26.30
2023-04-07T23:37:59.439Z,26.30
2023-04-07T23:40:29.389Z,26.30
2023-04-07T23:42:59.468Z,26.30
2023-04-07T23:45:29.368Z,26.30
2023-04-07T23:47:59.143Z,26.30
2023-04-07T23:50:32.741Z,26.30
2023-04-07T23:53:03.471Z,26.20
2023-04-07T23:55:33.427Z,26.30
2023-04-07T23:58:03.406Z,26.30
